Time;durP1;ratioP1;P1;durP2;ratioP2;P2;SDS_P1;SDS_P2;PMS_P1;PMS_P2;Temp;Humidity;BMP_temperature;BMP_pressure;BME280_temperature;BME280_humidity;BME280_pressure;Samples;Min_cycle;Max_cycle;Signal;HPM_P1;HPM_P2
2021/07/21 00:07:31;;;;;;;;;;;;;;;;;;;;;
2021/07/21 00:14:50;;;;;;;1999.90;999.90;;;16.20;99.90;;;;;;4934063;29;20451;-87
2021/07/21 00:41:20;;;;;;;;;;;;;;;;;;;;;
2021/07/21 01:07:09;;;;;;;;;;;;;;;;;;;;;
2021/07/21 01:34:23;;;;;;;1999.90;999.90;;;15.30;99.90;;;;;;4962778;28;20840;-87
2021/07/21 01:37:37;;;;;;;1999.90;999.90;;;15.30;99.90;;;;;;5051628;22;20481;-87
2021/07/21 01:48:07;;;;;;;1999.90;999.90;;;15.40;99.90;;;;;;4938760;29;20807;-87
2021/07/21 01:59:20;;;;;;;1999.90;999.90;;;15.20;99.90;;;;;;4985868;28;20971;-87
2021/07/21 02:12:03;;;;;;;1999.90;999.90;;;14.90;99.90;;;;;;4965599;28;20946;-87
2021/07/21 02:29:30;;;;;;;;;;;;;;;;;;;;;
2021/07/21 02:36:10;;;;;;;1999.90;999.90;;;14.70;99.90;;;;;;4903611;29;20414;-86
2021/07/21 02:39:43;;;;;;;;;;;;;;;;;;;;;
2021/07/21 03:01:37;;;;;;;1999.90;999.90;;;14.60;99.90;;;;;;4903116;29;20421;-86
2021/07/21 03:04:42;;;;;;;;;;;;;;;;;;;;;
2021/07/21 03:07:43;;;;;;;1999.90;999.90;;;14.50;99.90;;;;;;4851427;29;20447;-86
2021/07/21 03:13:43;;;;;;;1999.90;999.90;;;14.30;99.90;;;;;;5149598;22;20834;-88
2021/07/21 03:16:10;;;;;;;1999.90;999.90;;;14.30;99.90;;;;;;5076941;28;20430;-88
2021/07/21 03:18:56;;;;;;;;;;;;;;;;;;;;;
2021/07/21 03:25:12;;;;;;;;;;;;;;;;;;;;;
2021/07/21 03:27:48;;;;;;;1999.90;999.90;;;14.30;99.90;;;;;;5079908;28;20517;-88
2021/07/21 03:30:27;;;;;;;;;;;;;;;;;;;;;
2021/07/21 03:33:31;;;;;;;1999.90;999.90;;;14.20;99.90;;;;;;5093831;28;20405;-88
2021/07/21 03:36:45;;;;;;;1999.90;999.90;;;14.20;99.90;;;;;;5015791;28;20545;-88
2021/07/21 03:40:00;;;;;;;;;;;;;;;;;;;;;
2021/07/21 03:43:09;;;;;;;1999.90;999.90;;;14.10;99.90;;;;;;5030290;28;20493;-88
2021/07/21 03:46:04;;;;;;;1999.90;999.90;;;14.10;99.90;;;;;;5076175;28;20401;-88
2021/07/21 03:49:03;;;;;;;1999.90;999.90;;;14.00;99.90;;;;;;5085499;28;20776;-88
2021/07/21 03:54:49;;;;;;;1999.90;999.90;;;14.20;99.90;;;;;;5091201;28;20412;-88
2021/07/21 03:57:39;;;;;;;;;;;;;;;;;;;;;
2021/07/21 04:00:56;;;;;;;1999.90;999.90;;;14.20;99.90;;;;;;5094458;28;20426;-88
2021/07/21 04:04:06;;;;;;;1999.90;999.90;;;14.20;99.90;;;;;;5092412;28;20430;-88
2021/07/21 04:06:57;;;;;;;1999.90;999.90;;;14.10;99.90;;;;;;5076610;28;20441;-88
2021/07/21 04:09:49;;;;;;;1999.90;999.90;;;14.00;99.90;;;;;;5093550;28;20419;-88
2021/07/21 04:12:24;;;;;;;1999.90;999.90;;;13.90;99.90;;;;;;5077180;28;20458;-88
2021/07/21 04:15:05;;;;;;;1999.90;999.90;;;13.90;99.90;;;;;;5091973;28;20467;-88
2021/07/21 04:17:54;;;;;;;;;;;;;;;;;;;;;
2021/07/21 04:20:23;;;;;;;1999.90;999.90;;;14.00;99.90;;;;;;5093448;28;20408;-88
2021/07/21 04:23:51;;;;;;;1999.90;999.90;;;14.00;99.90;;;;;;5093256;28;20807;-88
2021/07/21 04:26:38;;;;;;;1999.90;999.90;;;14.00;99.90;;;;;;5096745;22;20837;-89
2021/07/21 04:29:25;;;;;;;1999.90;999.90;;;14.00;99.90;;;;;;5035206;28;20423;-89
2021/07/21 04:32:01;;;;;;;1999.90;999.90;;;14.00;99.90;;;;;;5035503;28;20417;-88
2021/07/21 04:34:27;;;;;;;1999.90;999.90;;;14.10;99.90;;;;;;5035294;28;20399;-88
2021/07/21 04:40:09;;;;;;;1999.90;999.90;;;14.10;99.90;;;;;;5062871;28;20470;-89
2021/07/21 04:42:50;;;;;;;1999.90;999.90;;;14.20;99.90;;;;;;5073568;28;20404;-88
2021/07/21 04:48:20;;;;;;;1999.90;999.90;;;14.30;99.90;;;;;;5300929;22;20486;-89
2021/07/21 04:51:15;;;;;;;1999.90;999.90;;;14.40;99.90;;;;;;5071521;28;20475;-88
2021/07/21 04:53:44;;;;;;;1999.90;999.90;;;14.60;99.90;;;;;;5077417;28;20390;-88
2021/07/21 04:59:03;;;;;;;1999.90;999.90;;;15.00;99.90;;;;;;3963515;26;20481;-88
2021/07/21 05:01:40;;;;;;;1999.90;999.90;;;15.20;99.90;;;;;;5075690;28;20423;-87
2021/07/21 05:04:09;;;;;;;1999.90;999.90;;;15.40;99.90;;;;;;5076094;28;20401;-87
2021/07/21 05:07:10;;;;;;;1999.90;999.90;;;15.50;99.90;;;;;;5086128;28;20476;-87
2021/07/21 05:09:57;;;;;;;1999.90;999.90;;;15.60;99.90;;;;;;5088744;28;20402;-87
2021/07/21 05:12:57;;;;;;;1999.90;999.90;;;15.80;99.90;;;;;;5095876;28;20409;-87
2021/07/21 05:15:33;;;;;;;1999.90;999.90;;;15.90;99.90;;;;;;5096801;28;20393;-87
2021/07/21 05:18:38;;;;;;;1999.90;999.90;;;16.00;99.90;;;;;;5096431;28;20477;-87
2021/07/21 05:21:41;;;;;;;1999.90;999.90;;;16.20;99.90;;;;;;5077561;28;20412;-87
2021/07/21 05:24:34;;;;;;;1999.90;999.90;;;16.40;99.90;;;;;;5094833;28;20923;-87
2021/07/21 05:27:04;;;;;;;1999.90;999.90;;;16.50;99.90;;;;;;5167408;22;20583;-87
2021/07/21 05:29:29;;;;;;;1999.90;999.90;;;16.70;99.90;;;;;;5076715;28;20382;-87
2021/07/21 05:31:58;;;;;;;1999.90;999.90;;;16.60;99.90;;;;;;5076450;28;20400;-86
2021/07/21 05:34:27;;;;;;;1999.90;999.90;;;16.60;99.90;;;;;;5075204;28;20164;-86
2021/07/21 05:36:53;;;;;;;1999.90;999.90;;;16.50;99.90;;;;;;5087798;28;20506;-86
2021/07/21 05:43:21;;;;;;;1999.90;999.90;;;16.40;99.90;;;;;;5034467;28;20252;-87
2021/07/21 05:49:31;;;;;;;;;;;;;;;;;;;;;
2021/07/21 05:52:14;;;;;;;;;;;;;;;;;;;;;
2021/07/21 05:55:00;;;;;;;1999.90;999.90;;;16.50;99.90;;;;;;5097556;28;20412;-86
2021/07/21 05:57:38;;;;;;;1999.90;999.90;;;16.60;99.90;;;;;;5097251;28;20799;-86
2021/07/21 06:04:10;;;;;;;;;;;;;;;;;;;;;
2021/07/21 06:07:07;;;;;;;1999.90;999.90;;;16.80;99.90;;;;;;5355857;22;20974;-87
2021/07/21 06:09:59;;;;;;;1999.90;999.90;;;16.80;99.90;;;;;;5039394;28;20434;-86
2021/07/21 06:15:33;;;;;;;1999.90;999.90;;;16.80;99.90;;;;;;5028128;28;20441;-86
2021/07/21 06:18:08;;;;;;;1999.90;999.90;;;16.80;99.90;;;;;;5020505;28;20486;-86
2021/07/21 06:20:43;;;;;;;1999.90;999.90;;;16.80;99.90;;;;;;5020830;28;20408;-86
2021/07/21 06:23:09;;;;;;;1999.90;999.90;;;16.90;99.90;;;;;;5021296;28;20404;-86
2021/07/21 06:25:41;;;;;;;1999.90;999.90;;;16.90;99.90;;;;;;5036633;28;20412;-86
2021/07/21 06:28:09;;;;;;;1999.90;999.90;;;17.00;99.90;;;;;;5037112;28;20419;-85
2021/07/21 06:30:38;;;;;;;1999.90;999.90;;;17.00;99.90;;;;;;5018341;28;20412;-86
2021/07/21 06:33:14;;;;;;;;;;;;;;;;;;;;;
2021/07/21 06:35:40;;;;;;;1999.90;999.90;;;17.20;99.90;;;;;;5036509;28;20772;-85
2021/07/21 06:38:08;;;;;;;1999.90;999.90;;;17.20;99.90;;;;;;5036355;28;20535;-85
2021/07/21 06:40:37;;;;;;;1999.90;999.90;;;17.20;99.90;;;;;;5036457;28;20162;-85
2021/07/21 06:43:06;;;;;;;1999.90;999.90;;;17.30;99.90;;;;;;5036341;28;20404;-85
2021/07/21 06:45:32;;;;;;;1999.90;999.90;;;17.40;99.90;;;;;;5036440;28;20462;-85
2021/07/21 06:47:58;;;;;;;1999.90;999.90;;;17.40;99.90;;;;;;5018858;28;20416;-86
2021/07/21 06:50:30;;;;;;;1999.90;999.90;;;17.40;99.90;;;;;;5019161;28;20424;-86
2021/07/21 06:52:56;;;;;;;1999.90;999.90;;;17.50;99.90;;;;;;5019703;28;20729;-86
2021/07/21 06:55:26;;;;;;;1999.90;999.90;;;17.60;99.90;;;;;;5036366;28;20442;-86
2021/07/21 06:57:55;;;;;;;1999.90;999.90;;;17.70;99.90;;;;;;5019992;28;20592;-86
2021/07/21 07:00:23;;;;;;;1999.90;999.90;;;17.70;99.90;;;;;;5036250;28;20732;-86
2021/07/21 07:02:49;;;;;;;1999.90;999.90;;;17.70;99.90;;;;;;5037064;28;20404;-86
2021/07/21 07:05:24;;;;;;;1999.90;999.90;;;17.80;99.90;;;;;;5036658;28;20404;-86
2021/07/21 07:08:15;;;;;;;1999.90;999.90;;;17.90;99.90;;;;;;5035724;28;20571;-85
2021/07/21 07:10:49;;;;;;;1999.90;999.90;;;18.00;99.90;;;;;;5019765;28;20416;-86
2021/07/21 07:13:15;;;;;;;1999.90;999.90;;;18.00;99.90;;;;;;5018899;28;20508;-86
2021/07/21 07:15:55;;;;;;;1999.90;999.90;;;18.00;99.90;;;;;;5036216;28;20493;-85
2021/07/21 07:18:25;;;;;;;1999.90;999.90;;;18.10;99.90;;;;;;5036984;28;20181;-85
2021/07/21 07:20:56;;;;;;;1999.90;999.90;;;18.10;99.90;;;;;;5018686;28;20416;-85
2021/07/21 07:23:22;;;;;;;1999.90;999.90;;;18.20;99.90;;;;;;5015407;28;20847;-85
2021/07/21 07:25:55;;;;;;;1999.90;999.90;;;18.30;99.90;;;;;;5017876;28;20416;-85
2021/07/21 07:28:23;;;;;;;1999.90;999.90;;;18.30;99.90;;;;;;5018029;28;20416;-85
2021/07/21 07:31:01;;;;;;;1999.90;999.90;;;18.40;99.90;;;;;;5019059;28;20420;-85
2021/07/21 07:33:38;;;;;;;1999.90;999.90;;;18.50;99.90;;;;;;5020864;28;20470;-85
2021/07/21 07:36:19;;;;;;;1999.90;999.90;;;18.50;99.90;;;;;;5037658;28;20420;-85
2021/07/21 07:38:45;;;;;;;1999.90;999.90;;;18.60;99.90;;;;;;5020150;28;20471;-85
2021/07/21 07:41:44;;;;;;;;;;;;;;;;;;;;;
2021/07/21 07:44:11;;;;;;;1999.90;999.90;;;18.70;99.90;;;;;;5037842;28;20563;-84
2021/07/21 07:47:09;;;;;;;1999.90;999.90;;;18.70;99.90;;;;;;5020459;28;20440;-85
2021/07/21 07:49:50;;;;;;;1999.90;999.90;;;18.80;99.90;;;;;;5019974;28;20416;-85
2021/07/21 07:52:16;;;;;;;1999.90;999.90;;;18.90;99.90;;;;;;5020521;28;20431;-84
2021/07/21 07:55:07;;;;;;;1999.90;999.90;;;19.00;99.90;;;;;;5037908;28;20408;-85
2021/07/21 07:57:36;;;;;;;1999.90;999.90;;;19.10;99.90;;;;;;5020077;28;20202;-85
2021/07/21 08:00:31;;;;;;;1999.90;999.90;;;19.10;99.90;;;;;;5038164;28;20388;-85
2021/07/21 08:04:05;;;;;;;;;;;;;;;;;;;;;
2021/07/21 08:07:32;;;;;;;1999.90;999.90;;;19.40;99.90;;;;;;5012775;22;20897;-85
2021/07/21 08:10:12;;;;;;;1999.90;999.90;;;19.40;99.90;;;;;;5063959;28;20415;-85
2021/07/21 08:13:19;;;;;;;1999.90;999.90;;;19.50;99.90;;;;;;5074544;28;20402;-85
2021/07/21 08:16:26;;;;;;;1999.90;999.90;;;19.50;99.80;;;;;;4993745;28;20500;-85
2021/07/21 08:19:18;;;;;;;1999.90;999.90;;;19.60;99.50;;;;;;4963782;28;20461;-86
2021/07/21 08:22:55;;;;;;;1999.90;999.90;;;19.70;96.80;;;;;;5056200;28;20451;-85
2021/07/21 08:25:51;;;;;;;1999.90;999.90;;;19.70;94.00;;;;;;4994186;28;20418;-85
2021/07/21 08:28:54;;;;;;;1999.90;999.90;;;19.80;91.90;;;;;;4994972;28;20407;-85
2021/07/21 08:31:23;;;;;;;1999.90;999.90;;;19.90;89.30;;;;;;4995545;28;20398;-85
2021/07/21 08:33:49;;;;;;;1999.90;999.90;;;19.90;90.10;;;;;;4979215;28;20481;-85
2021/07/21 08:36:24;;;;;;;1999.90;999.90;;;20.00;84.20;;;;;;4997525;28;20461;-86
2021/07/21 08:38:55;;;;;;;1999.90;999.90;;;20.00;82.80;;;;;;5014798;28;20441;-85
2021/07/21 08:41:59;;;;;;;1999.90;999.90;;;20.00;82.70;;;;;;5013783;28;20417;-85
2021/07/21 08:44:25;;;;;;;1999.90;999.90;;;20.00;86.40;;;;;;5013989;28;20777;-86
2021/07/21 08:51:09;;;;;;;1999.90;999.90;;;20.20;89.00;;;;;;4947167;29;20403;-85
2021/07/21 08:57:20;;;;;;;1999.90;999.90;;;20.30;80.50;;;;;;5056416;28;20823;-85
2021/07/21 09:00:21;;;;;;;;;;;;;;;;;;;;;
2021/07/21 09:07:01;;;;;;;1999.90;999.90;;;20.60;80.50;;;;;;5054957;28;20783;-85
2021/07/21 09:09:27;;;;;;;1999.90;999.90;;;20.70;91.30;;;;;;5055404;28;20408;-85
2021/07/21 09:31:09;;;;;;;;;;;;;;;;;;;;;
2021/07/21 09:34:52;;;;;;;;;;;;;;;;;;;;;
2021/07/21 09:57:33;;;;;;;1999.90;999.90;;;22.30;24.70;;;;;;5083761;28;20400;-88
2021/07/21 10:33:35;;;;;;;;;;;;;;;;;;;;;
2021/07/21 11:14:47;;;;;;;;;;;;;;;;;;;;;
2021/07/21 12:38:43;;;;;;;;;;;;;;;;;;;;;
2021/07/21 12:45:40;;;;;;;1999.90;999.90;;;26.40;1.00;;;;;;5030336;28;20487;-88
2021/07/21 12:48:16;;;;;;;1999.90;999.90;;;26.00;1.00;;;;;;4995556;28;20417;-88
2021/07/21 12:54:19;;;;;;;1999.90;999.90;;;25.80;1.00;;;;;;4972499;28;20406;-87
2021/07/21 12:58:04;;;;;;;;;;;;;;;;;;;;;
2021/07/21 13:01:30;;;;;;;1999.90;999.90;;;26.90;1.00;;;;;;4953316;28;20434;-88
2021/07/21 13:05:15;;;;;;;1999.90;999.90;;;27.40;1.00;;;;;;4914076;29;20517;-88
2021/07/21 13:15:38;;;;;;;;;;;;;;;;;;;;;
2021/07/21 13:29:41;;;;;;;;;;;;;;;;;;;;;
2021/07/21 13:52:15;;;;;;;;;;;;;;;;;;;;;
2021/07/21 14:05:40;;;;;;;1999.90;999.90;;;27.60;1.00;;;;;;4861007;29;20440;-90
2021/07/21 14:12:38;;;;;;;1999.90;999.90;;;27.70;1.00;;;;;;4843124;29;20452;-89
2021/07/21 15:03:32;;;;;;;1999.90;999.90;;;27.70;1.00;;;;;;3233239;22;20617;-89
2021/07/21 15:21:58;;;;;;;1999.90;999.90;;;27.50;1.00;;;;;;3903266;22;20500;-90
2021/07/21 15:28:05;;;;;;;1999.90;999.90;;;28.20;1.00;;;;;;5094313;28;20436;-88
2021/07/21 15:48:27;;;;;;;1999.90;999.90;;;28.80;1.00;;;;;;5128681;22;20580;-88
2021/07/21 16:02:12;;;;;;;1999.90;999.90;;;29.40;1.00;;;;;;5054859;28;20413;-89
2021/07/21 16:05:50;;;;;;;;;;;;;;;;;;;;;
2021/07/21 16:13:12;;;;;;;1999.90;999.90;;;29.50;1.00;;;;;;4858694;29;20427;-90
2021/07/21 16:20:48;;;;;;;1999.90;999.90;;;29.80;1.00;;;;;;5073319;28;20219;-89
2021/07/21 16:27:31;;;;;;;;;;;;;;;;;;;;;
2021/07/21 16:37:51;;;;;;;1999.90;999.90;;;29.90;1.00;;;;;;5082203;28;20433;-89
2021/07/21 16:43:59;;;;;;;1999.90;999.90;;;30.00;1.00;;;;;;5083077;28;20818;-90
2021/07/21 16:46:53;;;;;;;1999.90;999.90;;;29.90;1.00;;;;;;5014925;28;20446;-90
2021/07/21 16:53:13;;;;;;;1999.90;999.90;;;30.20;1.00;;;;;;4938513;29;20453;-90
2021/07/21 16:56:52;;;;;;;;;;;;;;;;;;;;;
2021/07/21 17:03:32;;;;;;;1999.90;999.90;;;29.70;1.00;;;;;;5016098;28;20449;-91
2021/07/21 17:11:53;;;;;;;1999.90;999.90;;;29.20;1.00;;;;;;5191042;22;20536;-90
2021/07/21 17:15:12;;;;;;;1999.90;999.90;;;29.30;1.00;;;;;;5039656;28;20438;-90
2021/07/21 17:18:34;;;;;;;;;;;;;;;;;;;;;
2021/07/21 17:21:45;;;;;;;1999.90;999.90;;;29.40;1.00;;;;;;5012741;28;20961;-89
2021/07/21 17:25:13;;;;;;;;;;;;;;;;;;;;;
2021/07/21 17:28:33;;;;;;;1999.90;999.90;;;29.00;1.00;;;;;;4994892;28;20422;-89
2021/07/21 17:31:15;;;;;;;1999.90;999.90;;;28.50;1.00;;;;;;5033717;28;20454;-90
2021/07/21 17:34:34;;;;;;;1999.90;999.90;;;27.90;1.00;;;;;;5014057;28;20403;-88
2021/07/21 17:37:32;;;;;;;1999.90;999.90;;;27.70;1.00;;;;;;5026578;22;20479;-89
2021/07/21 17:47:01;;;;;;;1999.90;999.90;;;26.60;1.00;;;;;;5036236;28;20542;-88
2021/07/21 17:49:27;;;;;;;1999.90;999.90;;;26.80;1.00;;;;;;5053074;28;20405;-88
2021/07/21 17:51:59;;;;;;;1999.90;999.90;;;26.90;1.00;;;;;;5037691;28;20630;-89
2021/07/21 17:54:32;;;;;;;1999.90;999.90;;;26.80;1.00;;;;;;5035799;28;20177;-88
2021/07/21 17:57:58;;;;;;;1999.90;999.90;;;26.70;1.00;;;;;;5035836;28;20432;-89
2021/07/21 18:00:52;;;;;;;1999.90;999.90;;;26.70;1.00;;;;;;5015878;28;20503;-88
2021/07/21 18:04:31;;;;;;;1999.90;999.90;;;26.40;1.00;;;;;;5033561;28;20390;-89
2021/07/21 18:06:43;;;;;;;1999.90;999.90;;;26.20;1.00;;;;;;5010615;28;20461;-89
2021/07/21 18:09:23;;;;;;;1999.90;999.90;;;26.10;1.00;;;;;;4999979;28;20421;-88
2021/07/21 18:11:51;;;;;;;1999.90;999.90;;;25.90;1.00;;;;;;5034614;28;20411;-88
2021/07/21 18:17:22;;;;;;;;;;;;;;;;;;;;;
2021/07/21 18:20:06;;;;;;;1999.90;999.90;;;25.50;1.00;;;;;;5039303;28;20436;-90
2021/07/21 18:22:50;;;;;;;1999.90;999.90;;;25.50;1.00;;;;;;5037762;28;20898;-89
2021/07/21 18:25:49;;;;;;;1999.90;999.90;;;25.50;1.00;;;;;;5054393;28;20960;-89
2021/07/21 18:28:27;;;;;;;1999.90;999.90;;;25.30;1.00;;;;;;5028615;28;20907;-89
2021/07/21 18:31:21;;;;;;;1999.90;999.90;;;25.20;1.00;;;;;;5038373;28;20395;-90
2021/07/21 18:33:50;;;;;;;1999.90;999.90;;;24.90;1.00;;;;;;5040117;28;20493;-88
2021/07/21 18:36:25;;;;;;;1999.90;999.90;;;24.90;1.00;;;;;;5053091;28;20485;-89
2021/07/21 18:39:00;;;;;;;1999.90;999.90;;;24.70;1.00;;;;;;5053091;28;20502;-88
2021/07/21 18:41:29;;;;;;;1999.90;999.90;;;24.80;1.00;;;;;;5053262;28;20505;-89
2021/07/21 18:43:58;;;;;;;1999.90;999.90;;;24.80;1.00;;;;;;5053008;28;21052;-88
2021/07/21 18:46:36;;;;;;;1999.90;999.90;;;24.80;1.00;;;;;;5037413;28;20953;-88
2021/07/21 18:49:17;;;;;;;1999.90;999.90;;;24.80;1.00;;;;;;5053038;28;20454;-88
2021/07/21 18:52:29;;;;;;;1999.90;999.90;;;24.80;1.00;;;;;;5036342;28;20490;-88
2021/07/21 18:54:35;;;;;;;1999.90;999.90;;;24.70;1.00;;;;;;5036818;28;20419;-89
2021/07/21 18:57:01;;;;;;;1999.90;999.90;;;24.50;1.00;;;;;;5036113;28;20525;-89
2021/07/21 18:59:27;;;;;;;1999.90;999.90;;;24.50;1.00;;;;;;5035839;28;20199;-88
2021/07/21 19:02:05;;;;;;;1999.90;999.90;;;24.40;1.00;;;;;;5036710;28;20410;-88
2021/07/21 19:04:31;;;;;;;1999.90;999.90;;;24.30;1.00;;;;;;5052470;28;20186;-88
2021/07/21 19:07:10;;;;;;;1999.90;999.90;;;24.40;1.00;;;;;;5036871;28;20425;-88
2021/07/21 19:09:35;;;;;;;1999.90;999.90;;;24.30;1.00;;;;;;5052237;28;20921;-88
2021/07/21 19:12:05;;;;;;;1999.90;999.90;;;24.20;1.00;;;;;;5050578;28;20410;-88
2021/07/21 19:14:39;;;;;;;1999.90;999.90;;;24.10;1.00;;;;;;5036263;28;20205;-88
2021/07/21 19:17:19;;;;;;;1999.90;999.90;;;24.10;1.00;;;;;;5051271;28;20431;-88
2021/07/21 19:19:51;;;;;;;1999.90;999.90;;;24.10;1.00;;;;;;5050001;28;20460;-88
2021/07/21 19:22:19;;;;;;;1999.90;999.90;;;24.00;1.00;;;;;;5034636;28;20937;-88
2021/07/21 19:25:30;;;;;;;1999.90;999.90;;;24.10;1.00;;;;;;5035062;28;20418;-87
2021/07/21 19:27:55;;;;;;;1999.90;999.90;;;24.00;1.00;;;;;;5035352;28;20461;-86
2021/07/21 19:30:22;;;;;;;1999.90;999.90;;;23.90;1.90;;;;;;5035688;28;20467;-86
2021/07/21 19:32:48;;;;;;;1999.90;999.90;;;24.00;4.70;;;;;;5035974;28;20410;-87
2021/07/21 19:35:16;;;;;;;1999.90;999.90;;;24.10;6.70;;;;;;5051440;28;20470;-87
2021/07/21 19:37:44;;;;;;;1999.90;999.90;;;24.20;7.50;;;;;;5051724;28;20953;-87
2021/07/21 19:40:10;;;;;;;1999.90;999.90;;;24.20;8.80;;;;;;5050774;28;20657;-87
2021/07/21 19:42:37;;;;;;;1999.90;999.90;;;24.20;10.00;;;;;;5034920;28;20405;-87
2021/07/21 19:45:07;;;;;;;1999.90;999.90;;;24.20;11.70;;;;;;5035153;28;20420;-89
2021/07/21 19:47:41;;;;;;;1999.90;999.90;;;24.20;13.50;;;;;;5036591;28;20428;-89
2021/07/21 19:50:25;;;;;;;1999.90;999.90;;;24.10;16.70;;;;;;5037564;28;20495;-92
2021/07/21 19:52:57;;;;;;;1999.90;999.90;;;24.00;21.60;;;;;;5056195;28;20466;-91
2021/07/21 19:55:45;;;;;;;1999.90;999.90;;;23.90;25.50;;;;;;5040404;28;20413;-91
2021/07/21 19:58:32;;;;;;;1999.90;999.90;;;23.80;26.40;;;;;;5039987;28;20741;-91
2021/07/21 20:01:04;;;;;;;1999.90;999.90;;;23.80;30.30;;;;;;5037209;28;20402;-91
2021/07/21 20:03:45;;;;;;;1999.90;999.90;;;23.70;37.40;;;;;;5053390;28;20420;-91
2021/07/21 20:06:14;;;;;;;1999.90;999.90;;;23.70;42.80;;;;;;5069001;22;20927;-91
2021/07/21 20:08:55;;;;;;;1999.90;999.90;;;23.60;48.20;;;;;;5078445;28;20411;-91
2021/07/21 20:11:32;;;;;;;1999.90;999.90;;;23.50;56.00;;;;;;5079144;28;20430;-92
2021/07/21 20:14:05;;;;;;;1999.90;999.90;;;23.30;66.40;;;;;;5077498;28;20402;-88
2021/07/21 20:16:50;;;;;;;1999.90;999.90;;;23.20;69.70;;;;;;5086759;28;20430;-92
2021/07/21 20:19:59;;;;;;;;;;;;;;;;;;;;;
2021/07/21 20:22:42;;;;;;;1999.90;999.90;;;23.20;74.30;;;;;;5071641;28;20996;-92
2021/07/21 20:29:23;;;;;;;1999.90;999.90;;;23.10;76.90;;;;;;5036212;28;20400;-92
2021/07/21 20:32:28;;;;;;;;;;;;;;;;;;;;;
2021/07/21 20:35:50;;;;;;;;;;;;;;;;;;;;;
2021/07/21 20:39:00;;;;;;;1999.90;999.90;;;23.00;81.70;;;;;;5094875;28;20508;-93
2021/07/21 20:42:10;;;;;;;1999.90;999.90;;;23.00;83.30;;;;;;5100333;28;20494;-92
2021/07/21 20:45:20;;;;;;;1999.90;999.90;;;23.00;83.80;;;;;;5096302;28;20538;-92
2021/07/21 20:51:08;;;;;;;1999.90;999.90;;;22.90;86.00;;;;;;5076414;28;20497;-92
2021/07/21 20:54:03;;;;;;;;;;;;;;;;;;;;;
2021/07/21 20:56:52;;;;;;;1999.90;999.90;;;22.80;87.70;;;;;;5063469;28;20513;-92
2021/07/21 21:00:13;;;;;;;1999.90;999.90;;;22.70;88.60;;;;;;5072825;28;20449;-92
2021/07/21 21:20:48;;;;;;;1999.90;999.90;;;22.40;93.40;;;;;;5055172;28;20537;-88
2021/07/21 21:23:44;;;;;;;1999.90;999.90;;;22.40;93.70;;;;;;5053833;28;20423;-88
2021/07/21 21:27:00;;;;;;;1999.90;999.90;;;22.30;94.50;;;;;;5049871;28;20434;-88
2021/07/21 21:29:57;;;;;;;;;;;;;;;;;;;;;
2021/07/21 21:32:50;;;;;;;1999.90;999.90;;;22.10;95.70;;;;;;4991504;28;20422;-88
2021/07/21 21:54:02;;;;;;;1999.90;999.90;;;21.60;99.90;;;;;;4903533;26;20465;-88
2021/07/21 21:57:28;;;;;;;1999.90;999.90;;;21.60;99.80;;;;;;5081505;28;20547;-88
2021/07/21 22:00:21;;;;;;;1999.90;999.90;;;21.70;99.40;;;;;;5088545;28;20602;-87
2021/07/21 22:03:41;;;;;;;;;;;;;;;;;;;;;
2021/07/21 22:06:36;;;;;;;1999.90;999.90;;;21.80;98.90;;;;;;5079057;28;20447;-88
2021/07/21 22:09:29;;;;;;;1999.90;999.90;;;21.80;98.90;;;;;;5094946;28;20424;-88
2021/07/21 22:12:09;;;;;;;1999.90;999.90;;;21.80;99.00;;;;;;5085856;28;20405;-88
2021/07/21 22:15:16;;;;;;;1999.90;999.90;;;21.80;99.10;;;;;;5084470;28;20463;-88
2021/07/21 22:23:35;;;;;;;1999.90;999.90;;;21.60;99.90;;;;;;5155348;22;20500;-88
2021/07/21 22:26:36;;;;;;;1999.90;999.90;;;21.60;99.90;;;;;;4988798;28;20509;-88
2021/07/21 22:29:04;;;;;;;1999.90;999.90;;;21.40;99.90;;;;;;5053319;28;20794;-88
2021/07/21 22:31:45;;;;;;;1999.90;999.90;;;21.40;99.90;;;;;;5071237;28;20953;-88
2021/07/21 22:34:36;;;;;;;1999.90;999.90;;;21.40;99.90;;;;;;5070606;28;20927;-88
2021/07/21 22:37:28;;;;;;;1999.90;999.90;;;21.40;99.90;;;;;;5055085;28;20430;-88
2021/07/21 22:40:24;;;;;;;1999.90;999.90;;;21.40;99.90;;;;;;5053830;28;20486;-88
2021/07/21 22:43:07;;;;;;;1999.90;999.90;;;21.40;99.90;;;;;;5053322;28;20419;-88
2021/07/21 22:45:38;;;;;;;1999.90;999.90;;;21.30;99.90;;;;;;5054709;28;20406;-88
2021/07/21 22:48:05;;;;;;;1999.90;999.90;;;21.30;99.90;;;;;;5055108;28;20423;-88
2021/07/21 22:50:31;;;;;;;1999.90;999.90;;;21.20;99.90;;;;;;5055025;28;20456;-88
2021/07/21 22:53:00;;;;;;;1999.90;999.90;;;21.20;99.90;;;;;;5070560;28;20970;-88
2021/07/21 22:55:33;;;;;;;1999.90;999.90;;;21.20;99.90;;;;;;5070325;28;20431;-88
2021/07/21 22:58:07;;;;;;;1999.90;999.90;;;21.20;99.90;;;;;;5071358;28;20416;-88
2021/07/21 23:00:54;;;;;;;1999.90;999.90;;;21.10;99.90;;;;;;5054871;28;20527;-88
2021/07/21 23:03:57;;;;;;;1999.90;999.90;;;21.10;99.90;;;;;;5054766;28;20417;-88
2021/07/21 23:07:00;;;;;;;1999.90;999.90;;;21.10;99.90;;;;;;5054784;28;20418;-88
2021/07/21 23:10:03;;;;;;;1999.90;999.90;;;21.10;99.90;;;;;;5054309;28;20430;-88
2021/07/21 23:13:09;;;;;;;1999.90;999.90;;;21.00;99.90;;;;;;5053559;28;20910;-87
2021/07/21 23:15:55;;;;;;;1999.90;999.90;;;21.00;99.90;;;;;;5054710;28;20415;-88
2021/07/21 23:18:27;;;;;;;1999.90;999.90;;;21.00;99.90;;;;;;5071033;28;20498;-88
2021/07/21 23:20:57;;;;;;;1999.90;999.90;;;21.00;99.90;;;;;;5070656;28;20883;-87
2021/07/21 23:23:33;;;;;;;1999.90;999.90;;;20.90;99.90;;;;;;5054739;28;20414;-88
2021/07/21 23:25:59;;;;;;;1999.90;999.90;;;20.90;99.90;;;;;;5069819;28;20797;-88
2021/07/21 23:28:33;;;;;;;1999.90;999.90;;;20.90;99.90;;;;;;5069557;28;20544;-87
2021/07/21 23:31:16;;;;;;;1999.90;999.90;;;20.90;99.90;;;;;;5054939;28;20441;-87
2021/07/21 23:33:49;;;;;;;1999.90;999.90;;;20.80;99.90;;;;;;5069642;28;20473;-87
2021/07/21 23:36:20;;;;;;;1999.90;999.90;;;20.70;99.90;;;;;;5053184;28;20434;-88
2021/07/21 23:39:29;;;;;;;1999.90;999.90;;;20.70;99.90;;;;;;5070198;28;20454;-87
2021/07/21 23:42:16;;;;;;;1999.90;999.90;;;20.70;99.90;;;;;;5069866;28;20435;-87
2021/07/21 23:44:48;;;;;;;1999.90;999.90;;;20.60;99.90;;;;;;5053212;28;20417;-87
2021/07/21 23:47:31;;;;;;;1999.90;999.90;;;20.60;99.90;;;;;;5069414;28;20444;-87
2021/07/21 23:49:59;;;;;;;1999.90;999.90;;;20.60;99.90;;;;;;5052495;28;20513;-87
2021/07/21 23:52:25;;;;;;;1999.90;999.90;;;20.50;99.90;;;;;;5069497;28;20418;-87
2021/07/21 23:54:51;;;;;;;1999.90;999.90;;;20.50;99.90;;;;;;5069322;28;20758;-87
2021/07/21 23:57:31;;;;;;;1999.90;999.90;;;20.50;99.90;;;;;;5054063;28;20433;-87
